sensor_id;sensor_type;location;lat;lon;timestamp;temperature;humidity
9816;DHT22;4947;44.526;11.360;2022-09-20T00:01:05;13.50;99.90
9816;DHT22;4947;44.526;11.360;2022-09-20T00:03:34;13.50;99.90
9816;DHT22;4947;44.526;11.360;2022-09-20T00:06:04;13.40;99.90
9816;DHT22;4947;44.526;11.360;2022-09-20T00:08:32;13.30;99.90
9816;DHT22;4947;44.526;11.360;2022-09-20T00:11:02;13.20;99.90
9816;DHT22;4947;44.526;11.360;2022-09-20T00:13:30;13.20;99.90
9816;DHT22;4947;44.526;11.360;2022-09-20T00:15:58;13.10;99.90
9816;DHT22;4947;44.526;11.360;2022-09-20T00:18:26;13.10;99.90
9816;DHT22;4947;44.526;11.360;2022-09-20T00:20:53;13.10;99.90
9816;DHT22;4947;44.526;11.360;2022-09-20T00:23:23;13.00;99.90
9816;DHT22;4947;44.526;11.360;2022-09-20T00:25:55;13.10;99.90
9816;DHT22;4947;44.526;11.360;2022-09-20T00:28:23;13.10;99.90
9816;DHT22;4947;44.526;11.360;2022-09-20T00:30:51;13.20;99.90
9816;DHT22;4947;44.526;11.360;2022-09-20T00:33:20;13.40;99.90
9816;DHT22;4947;44.526;11.360;2022-09-20T00:35:48;13.60;99.90
9816;DHT22;4947;44.526;11.360;2022-09-20T00:38:15;13.70;99.90
9816;DHT22;4947;44.526;11.360;2022-09-20T00:40:44;13.60;99.90
9816;DHT22;4947;44.526;11.360;2022-09-20T00:43:13;13.60;99.90
9816;DHT22;4947;44.526;11.360;2022-09-20T00:45:42;13.60;99.90
9816;DHT22;4947;44.526;11.360;2022-09-20T00:48:14;13.60;99.90
9816;DHT22;4947;44.526;11.360;2022-09-20T00:50:47;13.50;99.90
9816;DHT22;4947;44.526;11.360;2022-09-20T00:53:18;13.50;99.90
9816;DHT22;4947;44.526;11.360;2022-09-20T00:55:50;13.50;99.90
9816;DHT22;4947;44.526;11.360;2022-09-20T00:58:19;13.40;99.90
9816;DHT22;4947;44.526;11.360;2022-09-20T01:00:51;13.30;99.90
9816;DHT22;4947;44.526;11.360;2022-09-20T01:03:21;13.20;99.90
9816;DHT22;4947;44.526;11.360;2022-09-20T01:05:50;13.40;99.90
9816;DHT22;4947;44.526;11.360;2022-09-20T01:08:19;13.30;99.90
9816;DHT22;4947;44.526;11.360;2022-09-20T01:10:50;13.20;99.90
9816;DHT22;4947;44.526;11.360;2022-09-20T01:13:18;13.10;99.90
9816;DHT22;4947;44.526;11.360;2022-09-20T01:15:46;13.10;99.90
9816;DHT22;4947;44.526;11.360;2022-09-20T01:18:15;13.10;99.90
9816;DHT22;4947;44.526;11.360;2022-09-20T01:20:45;13.00;99.90
9816;DHT22;4947;44.526;11.360;2022-09-20T01:23:26;13.10;99.90
9816;DHT22;4947;44.526;11.360;2022-09-20T01:26:20;13.10;99.90
9816;DHT22;4947;44.526;11.360;2022-09-20T01:28:59;13.10;99.90
9816;DHT22;4947;44.526;11.360;2022-09-20T01:31:33;13.00;99.90
9816;DHT22;4947;44.526;11.360;2022-09-20T01:34:05;13.10;99.90
9816;DHT22;4947;44.526;11.360;2022-09-20T01:36:38;13.10;99.90
9816;DHT22;4947;44.526;11.360;2022-09-20T01:39:11;13.00;99.90
9816;DHT22;4947;44.526;11.360;2022-09-20T01:41:44;13.00;99.90
9816;DHT22;4947;44.526;11.360;2022-09-20T01:44:23;12.90;99.90
9816;DHT22;4947;44.526;11.360;2022-09-20T01:47:01;12.90;99.90
9816;DHT22;4947;44.526;11.360;2022-09-20T01:49:37;12.90;99.90
9816;DHT22;4947;44.526;11.360;2022-09-20T01:55:45;12.80;99.90
9816;DHT22;4947;44.526;11.360;2022-09-20T02:02:07;12.60;99.90
9816;DHT22;4947;44.526;11.360;2022-09-20T02:04:57;12.70;99.90
9816;DHT22;4947;44.526;11.360;2022-09-20T02:08:07;12.60;99.90
9816;DHT22;4947;44.526;11.360;2022-09-20T02:11:08;12.50;99.90
9816;DHT22;4947;44.526;11.360;2022-09-20T02:14:03;12.50;99.90
9816;DHT22;4947;44.526;11.360;2022-09-20T02:16:48;12.50;99.90
9816;DHT22;4947;44.526;11.360;2022-09-20T02:19:33;12.50;99.90
9816;DHT22;4947;44.526;11.360;2022-09-20T02:22:14;12.60;99.90
9816;DHT22;4947;44.526;11.360;2022-09-20T02:24:49;12.60;99.90
9816;DHT22;4947;44.526;11.360;2022-09-20T02:27:24;12.90;99.90
9816;DHT22;4947;44.526;11.360;2022-09-20T02:30:03;13.00;99.90
9816;DHT22;4947;44.526;11.360;2022-09-20T02:33:02;12.90;99.90
9816;DHT22;4947;44.526;11.360;2022-09-20T02:35:41;13.00;99.90
9816;DHT22;4947;44.526;11.360;2022-09-20T02:38:27;13.00;99.90
9816;DHT22;4947;44.526;11.360;2022-09-20T02:41:13;13.00;99.90
9816;DHT22;4947;44.526;11.360;2022-09-20T02:43:55;13.10;99.90
9816;DHT22;4947;44.526;11.360;2022-09-20T02:46:27;13.20;99.90
9816;DHT22;4947;44.526;11.360;2022-09-20T02:49:02;13.30;99.90
9816;DHT22;4947;44.526;11.360;2022-09-20T02:51:39;13.40;99.90
9816;DHT22;4947;44.526;11.360;2022-09-20T02:54:16;13.50;99.90
9816;DHT22;4947;44.526;11.360;2022-09-20T02:56:51;13.60;99.90
9816;DHT22;4947;44.526;11.360;2022-09-20T02:59:28;13.70;99.90
9816;DHT22;4947;44.526;11.360;2022-09-20T03:02:06;13.70;99.90
9816;DHT22;4947;44.526;11.360;2022-09-20T03:04:44;13.80;99.90
9816;DHT22;4947;44.526;11.360;2022-09-20T03:07:23;13.90;99.90
9816;DHT22;4947;44.526;11.360;2022-09-20T03:10:00;13.90;99.90
9816;DHT22;4947;44.526;11.360;2022-09-20T03:12:41;13.90;99.90
9816;DHT22;4947;44.526;11.360;2022-09-20T03:15:19;13.90;99.90
9816;DHT22;4947;44.526;11.360;2022-09-20T03:17:55;14.00;99.90
9816;DHT22;4947;44.526;11.360;2022-09-20T03:20:32;14.00;99.90
9816;DHT22;4947;44.526;11.360;2022-09-20T03:23:12;14.00;99.90
9816;DHT22;4947;44.526;11.360;2022-09-20T03:25:52;14.10;99.90
9816;DHT22;4947;44.526;11.360;2022-09-20T03:28:42;14.10;99.90
9816;DHT22;4947;44.526;11.360;2022-09-20T03:31:27;14.10;99.90
9816;DHT22;4947;44.526;11.360;2022-09-20T03:34:02;14.10;99.90
9816;DHT22;4947;44.526;11.360;2022-09-20T03:36:45;14.20;99.90
9816;DHT22;4947;44.526;11.360;2022-09-20T03:42:24;14.30;99.90
9816;DHT22;4947;44.526;11.360;2022-09-20T03:45:04;14.30;99.90
9816;DHT22;4947;44.526;11.360;2022-09-20T03:47:52;14.30;99.90
9816;DHT22;4947;44.526;11.360;2022-09-20T03:50:38;14.40;99.90
9816;DHT22;4947;44.526;11.360;2022-09-20T03:53:33;14.40;99.90
9816;DHT22;4947;44.526;11.360;2022-09-20T03:56:44;14.40;99.90
9816;DHT22;4947;44.526;11.360;2022-09-20T03:59:36;14.50;99.90
9816;DHT22;4947;44.526;11.360;2022-09-20T04:02:19;14.50;99.90
9816;DHT22;4947;44.526;11.360;2022-09-20T04:04:54;14.50;99.90
9816;DHT22;4947;44.526;11.360;2022-09-20T04:07:29;14.50;99.90
9816;DHT22;4947;44.526;11.360;2022-09-20T04:10:15;14.60;99.90
9816;DHT22;4947;44.526;11.360;2022-09-20T04:12:58;14.60;99.90
9816;DHT22;4947;44.526;11.360;2022-09-20T04:15:38;14.60;99.90
9816;DHT22;4947;44.526;11.360;2022-09-20T04:18:15;14.60;99.90
9816;DHT22;4947;44.526;11.360;2022-09-20T04:20:49;14.60;99.90
9816;DHT22;4947;44.526;11.360;2022-09-20T04:23:29;14.60;99.90
9816;DHT22;4947;44.526;11.360;2022-09-20T04:26:00;14.70;99.90
9816;DHT22;4947;44.526;11.360;2022-09-20T04:28:34;14.70;99.90
9816;DHT22;4947;44.526;11.360;2022-09-20T04:31:15;14.70;99.90
9816;DHT22;4947;44.526;11.360;2022-09-20T04:33:47;14.60;99.90
9816;DHT22;4947;44.526;11.360;2022-09-20T04:36:27;14.70;99.90
9816;DHT22;4947;44.526;11.360;2022-09-20T04:39:05;14.70;99.90
9816;DHT22;4947;44.526;11.360;2022-09-20T04:42:03;14.70;99.90
9816;DHT22;4947;44.526;11.360;2022-09-20T04:50:58;14.60;99.90
9816;DHT22;4947;44.526;11.360;2022-09-20T04:56:48;14.60;99.90
9816;DHT22;4947;44.526;11.360;2022-09-20T04:59:32;14.60;99.90
9816;DHT22;4947;44.526;11.360;2022-09-20T05:11:58;14.50;99.90
9816;DHT22;4947;44.526;11.360;2022-09-20T05:14:57;14.50;99.90
9816;DHT22;4947;44.526;11.360;2022-09-20T05:17:48;14.60;99.90
9816;DHT22;4947;44.526;11.360;2022-09-20T05:20:41;14.60;99.90
9816;DHT22;4947;44.526;11.360;2022-09-20T05:26:15;14.50;99.90
9816;DHT22;4947;44.526;11.360;2022-09-20T05:28:51;14.50;99.90
9816;DHT22;4947;44.526;11.360;2022-09-20T05:31:29;14.50;99.90
9816;DHT22;4947;44.526;11.360;2022-09-20T05:34:06;14.60;99.90
9816;DHT22;4947;44.526;11.360;2022-09-20T05:36:42;14.60;99.90
9816;DHT22;4947;44.526;11.360;2022-09-20T05:39:32;14.60;99.90
9816;DHT22;4947;44.526;11.360;2022-09-20T05:42:08;14.60;99.90
9816;DHT22;4947;44.526;11.360;2022-09-20T05:44:56;14.60;99.90
9816;DHT22;4947;44.526;11.360;2022-09-20T05:47:34;14.60;99.90
9816;DHT22;4947;44.526;11.360;2022-09-20T05:50:32;14.70;99.90
9816;DHT22;4947;44.526;11.360;2022-09-20T05:53:14;14.70;99.90
9816;DHT22;4947;44.526;11.360;2022-09-20T05:55:51;14.70;99.90
9816;DHT22;4947;44.526;11.360;2022-09-20T05:58:43;14.80;99.90
9816;DHT22;4947;44.526;11.360;2022-09-20T06:01:18;14.80;99.90
9816;DHT22;4947;44.526;11.360;2022-09-20T06:03:52;15.00;99.90
9816;DHT22;4947;44.526;11.360;2022-09-20T06:06:24;15.00;99.90
9816;DHT22;4947;44.526;11.360;2022-09-20T06:09:05;15.00;99.90
9816;DHT22;4947;44.526;11.360;2022-09-20T06:12:02;15.00;99.90
9816;DHT22;4947;44.526;11.360;2022-09-20T06:14:40;15.10;99.90
9816;DHT22;4947;44.526;11.360;2022-09-20T06:17:22;15.10;99.90
9816;DHT22;4947;44.526;11.360;2022-09-20T06:20:03;15.20;99.90
9816;DHT22;4947;44.526;11.360;2022-09-20T06:22:38;15.20;99.90
9816;DHT22;4947;44.526;11.360;2022-09-20T06:25:14;15.20;99.90
9816;DHT22;4947;44.526;11.360;2022-09-20T06:27:46;15.30;99.90
9816;DHT22;4947;44.526;11.360;2022-09-20T06:30:18;15.30;99.90
9816;DHT22;4947;44.526;11.360;2022-09-20T06:32:59;15.40;99.90
9816;DHT22;4947;44.526;11.360;2022-09-20T06:35:34;15.50;99.90
9816;DHT22;4947;44.526;11.360;2022-09-20T06:38:14;15.40;99.90
9816;DHT22;4947;44.526;11.360;2022-09-20T06:41:02;15.50;99.90
9816;DHT22;4947;44.526;11.360;2022-09-20T06:43:47;15.50;99.90
9816;DHT22;4947;44.526;11.360;2022-09-20T06:46:15;15.50;99.90
9816;DHT22;4947;44.526;11.360;2022-09-20T06:48:45;15.50;99.90
9816;DHT22;4947;44.526;11.360;2022-09-20T06:51:15;15.50;99.90
9816;DHT22;4947;44.526;11.360;2022-09-20T06:53:43;15.60;99.90
9816;DHT22;4947;44.526;11.360;2022-09-20T06:56:19;15.60;99.90
9816;DHT22;4947;44.526;11.360;2022-09-20T06:58:47;15.70;99.90
9816;DHT22;4947;44.526;11.360;2022-09-20T07:01:14;15.70;99.90
9816;DHT22;4947;44.526;11.360;2022-09-20T07:03:43;15.80;99.90
9816;DHT22;4947;44.526;11.360;2022-09-20T07:06:12;15.90;99.90
9816;DHT22;4947;44.526;11.360;2022-09-20T07:08:43;15.90;99.90
9816;DHT22;4947;44.526;11.360;2022-09-20T07:11:12;16.00;99.90
9816;DHT22;4947;44.526;11.360;2022-09-20T07:13:40;16.10;99.90
9816;DHT22;4947;44.526;11.360;2022-09-20T07:16:11;16.20;99.90
9816;DHT22;4947;44.526;11.360;2022-09-20T07:18:40;16.40;99.90
9816;DHT22;4947;44.526;11.360;2022-09-20T07:21:10;16.50;99.90
9816;DHT22;4947;44.526;11.360;2022-09-20T07:23:39;16.70;99.90
9816;DHT22;4947;44.526;11.360;2022-09-20T07:26:16;16.90;99.90
9816;DHT22;4947;44.526;11.360;2022-09-20T07:28:44;17.10;99.90
9816;DHT22;4947;44.526;11.360;2022-09-20T07:31:11;17.30;99.90
9816;DHT22;4947;44.526;11.360;2022-09-20T07:33:38;17.50;99.90
9816;DHT22;4947;44.526;11.360;2022-09-20T07:36:06;17.60;99.90
9816;DHT22;4947;44.526;11.360;2022-09-20T07:38:35;17.70;99.90
9816;DHT22;4947;44.526;11.360;2022-09-20T07:41:04;18.00;99.90
9816;DHT22;4947;44.526;11.360;2022-09-20T07:43:32;18.30;99.90
9816;DHT22;4947;44.526;11.360;2022-09-20T07:46:00;18.60;99.90
9816;DHT22;4947;44.526;11.360;2022-09-20T07:48:29;19.00;98.90
9816;DHT22;4947;44.526;11.360;2022-09-20T07:51:02;19.70;96.40
9816;DHT22;4947;44.526;11.360;2022-09-20T07:53:30;20.30;93.20
9816;DHT22;4947;44.526;11.360;2022-09-20T07:56:00;20.80;91.80
9816;DHT22;4947;44.526;11.360;2022-09-20T07:58:31;21.20;89.80
9816;DHT22;4947;44.526;11.360;2022-09-20T08:01:06;21.60;88.80
9816;DHT22;4947;44.526;11.360;2022-09-20T08:03:34;22.00;86.30
9816;DHT22;4947;44.526;11.360;2022-09-20T08:06:04;22.40;82.90
9816;DHT22;4947;44.526;11.360;2022-09-20T08:08:33;22.00;82.50
9816;DHT22;4947;44.526;11.360;2022-09-20T08:11:02;21.80;84.80
9816;DHT22;4947;44.526;11.360;2022-09-20T08:13:34;22.20;83.40
9816;DHT22;4947;44.526;11.360;2022-09-20T08:16:03;22.10;82.50
9816;DHT22;4947;44.526;11.360;2022-09-20T08:18:32;22.40;81.90
9816;DHT22;4947;44.526;11.360;2022-09-20T08:21:03;22.90;79.10
9816;DHT22;4947;44.526;11.360;2022-09-20T08:23:33;23.00;79.60
9816;DHT22;4947;44.526;11.360;2022-09-20T08:26:07;23.60;77.90
9816;DHT22;4947;44.526;11.360;2022-09-20T08:28:39;24.20;76.30
9816;DHT22;4947;44.526;11.360;2022-09-20T08:31:09;24.60;75.50
9816;DHT22;4947;44.526;11.360;2022-09-20T08:33:39;25.40;73.10
9816;DHT22;4947;44.526;11.360;2022-09-20T08:36:11;25.70;70.80
9816;DHT22;4947;44.526;11.360;2022-09-20T08:38:39;26.00;68.60
9816;DHT22;4947;44.526;11.360;2022-09-20T08:41:09;26.80;66.80
9816;DHT22;4947;44.526;11.360;2022-09-20T08:43:41;27.10;65.90
9816;DHT22;4947;44.526;11.360;2022-09-20T08:46:13;27.90;62.70
9816;DHT22;4947;44.526;11.360;2022-09-20T08:48:42;28.40;59.60
9816;DHT22;4947;44.526;11.360;2022-09-20T08:51:12;27.80;60.50
9816;DHT22;4947;44.526;11.360;2022-09-20T08:53:44;27.60;62.10
9816;DHT22;4947;44.526;11.360;2022-09-20T08:56:14;27.40;60.30
9816;DHT22;4947;44.526;11.360;2022-09-20T08:58:43;27.00;62.10
9816;DHT22;4947;44.526;11.360;2022-09-20T09:01:16;25.60;65.70
9816;DHT22;4947;44.526;11.360;2022-09-20T09:03:44;26.00;65.80
9816;DHT22;4947;44.526;11.360;2022-09-20T09:06:13;26.70;64.60
9816;DHT22;4947;44.526;11.360;2022-09-20T09:08:46;27.90;60.60
9816;DHT22;4947;44.526;11.360;2022-09-20T09:11:18;28.20;59.40
9816;DHT22;4947;44.526;11.360;2022-09-20T09:13:52;28.40;58.70
9816;DHT22;4947;44.526;11.360;2022-09-20T09:16:22;27.10;59.80
9816;DHT22;4947;44.526;11.360;2022-09-20T09:18:50;27.20;63.30
9816;DHT22;4947;44.526;11.360;2022-09-20T09:21:19;27.90;60.50
9816;DHT22;4947;44.526;11.360;2022-09-20T09:23:51;28.10;59.20
9816;DHT22;4947;44.526;11.360;2022-09-20T09:26:20;27.70;60.20
9816;DHT22;4947;44.526;11.360;2022-09-20T09:29:14;27.00;60.20
9816;DHT22;4947;44.526;11.360;2022-09-20T09:31:42;27.40;61.10
9816;DHT22;4947;44.526;11.360;2022-09-20T09:34:23;27.70;59.40
9816;DHT22;4947;44.526;11.360;2022-09-20T09:36:51;27.00;61.50
9816;DHT22;4947;44.526;11.360;2022-09-20T09:39:25;27.80;59.20
9816;DHT22;4947;44.526;11.360;2022-09-20T09:41:54;28.00;59.60
9816;DHT22;4947;44.526;11.360;2022-09-20T09:44:25;27.60;59.50
9816;DHT22;4947;44.526;11.360;2022-09-20T09:46:54;27.20;59.40
9816;DHT22;4947;44.526;11.360;2022-09-20T09:49:26;27.00;62.00
9816;DHT22;4947;44.526;11.360;2022-09-20T09:52:03;26.50;64.20
9816;DHT22;4947;44.526;11.360;2022-09-20T09:54:37;26.30;65.20
9816;DHT22;4947;44.526;11.360;2022-09-20T09:57:38;25.70;65.20
9816;DHT22;4947;44.526;11.360;2022-09-20T10:00:15;25.10;68.10
9816;DHT22;4947;44.526;11.360;2022-09-20T10:05:45;23.90;73.70
9816;DHT22;4947;44.526;11.360;2022-09-20T10:08:24;23.40;72.20
9816;DHT22;4947;44.526;11.360;2022-09-20T10:11:03;23.30;74.60
9816;DHT22;4947;44.526;11.360;2022-09-20T10:13:38;23.10;74.90
9816;DHT22;4947;44.526;11.360;2022-09-20T10:16:16;23.00;77.80
9816;DHT22;4947;44.526;11.360;2022-09-20T10:18:52;22.80;76.10
9816;DHT22;4947;44.526;11.360;2022-09-20T10:21:31;22.90;80.00
9816;DHT22;4947;44.526;11.360;2022-09-20T10:24:16;22.90;77.70
9816;DHT22;4947;44.526;11.360;2022-09-20T10:27:04;22.70;80.90
9816;DHT22;4947;44.526;11.360;2022-09-20T10:29:43;22.70;80.40
9816;DHT22;4947;44.526;11.360;2022-09-20T10:32:26;22.80;81.90
9816;DHT22;4947;44.526;11.360;2022-09-20T10:35:07;22.90;81.80
9816;DHT22;4947;44.526;11.360;2022-09-20T10:37:45;22.70;77.70
9816;DHT22;4947;44.526;11.360;2022-09-20T10:40:24;22.60;76.70
9816;DHT22;4947;44.526;11.360;2022-09-20T10:43:36;22.60;77.20
9816;DHT22;4947;44.526;11.360;2022-09-20T10:46:15;22.40;76.80
9816;DHT22;4947;44.526;11.360;2022-09-20T10:48:55;22.60;79.40
9816;DHT22;4947;44.526;11.360;2022-09-20T10:51:36;22.80;77.80
9816;DHT22;4947;44.526;11.360;2022-09-20T10:54:16;22.70;76.90
9816;DHT22;4947;44.526;11.360;2022-09-20T10:56:50;22.70;77.10
9816;DHT22;4947;44.526;11.360;2022-09-20T10:59:33;22.80;79.50
9816;DHT22;4947;44.526;11.360;2022-09-20T11:02:20;23.00;75.50
9816;DHT22;4947;44.526;11.360;2022-09-20T11:05:34;22.70;77.10
9816;DHT22;4947;44.526;11.360;2022-09-20T11:08:10;22.60;77.20
9816;DHT22;4947;44.526;11.360;2022-09-20T11:10:42;22.60;75.50
9816;DHT22;4947;44.526;11.360;2022-09-20T11:13:21;22.70;78.60
9816;DHT22;4947;44.526;11.360;2022-09-20T11:15:54;22.80;78.00
9816;DHT22;4947;44.526;11.360;2022-09-20T11:18:29;22.70;75.60
9816;DHT22;4947;44.526;11.360;2022-09-20T11:21:05;22.80;76.10
9816;DHT22;4947;44.526;11.360;2022-09-20T11:23:43;22.90;75.30
9816;DHT22;4947;44.526;11.360;2022-09-20T11:26:18;22.80;76.20
9816;DHT22;4947;44.526;11.360;2022-09-20T11:28:51;22.80;78.20
9816;DHT22;4947;44.526;11.360;2022-09-20T11:31:24;22.90;75.40
9816;DHT22;4947;44.526;11.360;2022-09-20T11:33:57;23.10;75.50
9816;DHT22;4947;44.526;11.360;2022-09-20T11:36:30;23.00;75.80
9816;DHT22;4947;44.526;11.360;2022-09-20T11:39:10;23.10;75.80
9816;DHT22;4947;44.526;11.360;2022-09-20T11:41:41;23.10;74.10
9816;DHT22;4947;44.526;11.360;2022-09-20T11:44:12;22.90;74.50
9816;DHT22;4947;44.526;11.360;2022-09-20T11:46:45;22.90;74.30
9816;DHT22;4947;44.526;11.360;2022-09-20T11:49:16;23.00;73.90
9816;DHT22;4947;44.526;11.360;2022-09-20T11:52:11;23.10;74.20
9816;DHT22;4947;44.526;11.360;2022-09-20T11:55:18;23.20;73.30
9816;DHT22;4947;44.526;11.360;2022-09-20T11:58:00;23.20;71.20
9816;DHT22;4947;44.526;11.360;2022-09-20T12:00:29;23.20;69.20
9816;DHT22;4947;44.526;11.360;2022-09-20T12:02:58;23.00;70.60
9816;DHT22;4947;44.526;11.360;2022-09-20T12:05:32;23.00;70.00
9816;DHT22;4947;44.526;11.360;2022-09-20T12:08:04;22.90;69.50
9816;DHT22;4947;44.526;11.360;2022-09-20T12:10:36;22.90;70.30
9816;DHT22;4947;44.526;11.360;2022-09-20T12:13:07;23.00;70.20
9816;DHT22;4947;44.526;11.360;2022-09-20T12:15:44;23.00;68.00
9816;DHT22;4947;44.526;11.360;2022-09-20T12:18:27;22.90;68.00
9816;DHT22;4947;44.526;11.360;2022-09-20T12:21:08;22.80;66.60
9816;DHT22;4947;44.526;11.360;2022-09-20T12:26:48;22.90;65.20
9816;DHT22;4947;44.526;11.360;2022-09-20T12:29:53;22.80;66.10
9816;DHT22;4947;44.526;11.360;2022-09-20T12:32:44;22.90;64.10
9816;DHT22;4947;44.526;11.360;2022-09-20T12:38:36;22.90;65.50
9816;DHT22;4947;44.526;11.360;2022-09-20T12:41:14;23.00;64.70
9816;DHT22;4947;44.526;11.360;2022-09-20T12:44:19;23.10;66.10
9816;DHT22;4947;44.526;11.360;2022-09-20T12:46:57;23.10;61.90
9816;DHT22;4947;44.526;11.360;2022-09-20T12:49:34;23.10;61.60
9816;DHT22;4947;44.526;11.360;2022-09-20T12:52:22;23.20;62.50
9816;DHT22;4947;44.526;11.360;2022-09-20T12:55:08;23.20;61.70
9816;DHT22;4947;44.526;11.360;2022-09-20T12:57:39;23.20;60.30
9816;DHT22;4947;44.526;11.360;2022-09-20T13:00:26;23.20;60.50
9816;DHT22;4947;44.526;11.360;2022-09-20T13:03:00;23.20;59.40
9816;DHT22;4947;44.526;11.360;2022-09-20T13:05:39;23.20;60.80
9816;DHT22;4947;44.526;11.360;2022-09-20T13:08:16;23.30;61.50
9816;DHT22;4947;44.526;11.360;2022-09-20T13:10:52;23.40;60.80
9816;DHT22;4947;44.526;11.360;2022-09-20T13:13:31;23.40;60.70
9816;DHT22;4947;44.526;11.360;2022-09-20T13:16:01;23.50;59.20
9816;DHT22;4947;44.526;11.360;2022-09-20T13:18:30;23.40;58.20
9816;DHT22;4947;44.526;11.360;2022-09-20T13:20:59;23.50;59.10
9816;DHT22;4947;44.526;11.360;2022-09-20T13:23:32;23.50;60.70
9816;DHT22;4947;44.526;11.360;2022-09-20T13:26:05;23.40;59.00
9816;DHT22;4947;44.526;11.360;2022-09-20T13:28:41;23.50;58.50
9816;DHT22;4947;44.526;11.360;2022-09-20T13:31:27;23.40;58.00
9816;DHT22;4947;44.526;11.360;2022-09-20T13:34:03;23.40;57.30
9816;DHT22;4947;44.526;11.360;2022-09-20T13:36:38;23.40;57.00
9816;DHT22;4947;44.526;11.360;2022-09-20T13:39:06;23.40;57.60
9816;DHT22;4947;44.526;11.360;2022-09-20T13:41:37;23.40;56.10
9816;DHT22;4947;44.526;11.360;2022-09-20T13:44:12;23.40;57.20
9816;DHT22;4947;44.526;11.360;2022-09-20T13:46:43;23.40;56.10
9816;DHT22;4947;44.526;11.360;2022-09-20T13:49:15;23.30;54.70
9816;DHT22;4947;44.526;11.360;2022-09-20T13:51:46;23.30;54.30
9816;DHT22;4947;44.526;11.360;2022-09-20T13:54:25;23.10;55.60
9816;DHT22;4947;44.526;11.360;2022-09-20T13:56:55;23.00;54.20
9816;DHT22;4947;44.526;11.360;2022-09-20T13:59:27;23.00;55.50
9816;DHT22;4947;44.526;11.360;2022-09-20T14:01:58;22.90;56.00
9816;DHT22;4947;44.526;11.360;2022-09-20T14:04:28;22.90;56.70
9816;DHT22;4947;44.526;11.360;2022-09-20T14:06:57;22.90;57.10
9816;DHT22;4947;44.526;11.360;2022-09-20T14:09:28;23.00;56.80
9816;DHT22;4947;44.526;11.360;2022-09-20T14:11:58;23.00;56.10
9816;DHT22;4947;44.526;11.360;2022-09-20T14:14:27;22.90;56.10
9816;DHT22;4947;44.526;11.360;2022-09-20T14:16:56;23.00;56.70
9816;DHT22;4947;44.526;11.360;2022-09-20T14:19:28;23.10;57.10
9816;DHT22;4947;44.526;11.360;2022-09-20T14:22:01;23.10;55.20
9816;DHT22;4947;44.526;11.360;2022-09-20T14:24:31;23.20;54.30
9816;DHT22;4947;44.526;11.360;2022-09-20T14:27:12;23.20;52.30
9816;DHT22;4947;44.526;11.360;2022-09-20T14:29:44;23.30;53.50
9816;DHT22;4947;44.526;11.360;2022-09-20T14:32:36;23.30;54.60
9816;DHT22;4947;44.526;11.360;2022-09-20T14:35:11;23.30;53.40
9816;DHT22;4947;44.526;11.360;2022-09-20T14:37:43;23.30;54.80
9816;DHT22;4947;44.526;11.360;2022-09-20T14:40:20;23.30;53.20
9816;DHT22;4947;44.526;11.360;2022-09-20T14:42:54;23.30;53.80
9816;DHT22;4947;44.526;11.360;2022-09-20T14:45:28;23.30;54.30
9816;DHT22;4947;44.526;11.360;2022-09-20T14:48:00;23.30;53.50
9816;DHT22;4947;44.526;11.360;2022-09-20T14:50:32;23.30;52.30
9816;DHT22;4947;44.526;11.360;2022-09-20T14:53:21;23.30;54.10
9816;DHT22;4947;44.526;11.360;2022-09-20T14:55:56;23.40;53.80
9816;DHT22;4947;44.526;11.360;2022-09-20T14:58:24;23.50;53.00
9816;DHT22;4947;44.526;11.360;2022-09-20T15:00:56;23.50;52.60
9816;DHT22;4947;44.526;11.360;2022-09-20T15:03:28;23.50;52.60
9816;DHT22;4947;44.526;11.360;2022-09-20T15:05:56;23.50;53.30
9816;DHT22;4947;44.526;11.360;2022-09-20T15:08:24;23.40;53.20
9816;DHT22;4947;44.526;11.360;2022-09-20T15:10:52;23.40;52.20
9816;DHT22;4947;44.526;11.360;2022-09-20T15:13:19;23.40;53.20
9816;DHT22;4947;44.526;11.360;2022-09-20T15:15:49;23.40;53.10
9816;DHT22;4947;44.526;11.360;2022-09-20T15:18:20;23.50;52.60
9816;DHT22;4947;44.526;11.360;2022-09-20T15:20:49;23.50;51.70
9816;DHT22;4947;44.526;11.360;2022-09-20T15:23:17;23.50;51.20
9816;DHT22;4947;44.526;11.360;2022-09-20T15:25:46;23.50;50.50
9816;DHT22;4947;44.526;11.360;2022-09-20T15:28:16;23.50;51.70
9816;DHT22;4947;44.526;11.360;2022-09-20T15:30:45;23.40;50.30
9816;DHT22;4947;44.526;11.360;2022-09-20T15:33:13;23.40;51.50
9816;DHT22;4947;44.526;11.360;2022-09-20T15:35:43;23.40;49.60
9816;DHT22;4947;44.526;11.360;2022-09-20T15:38:11;23.40;49.80
9816;DHT22;4947;44.526;11.360;2022-09-20T15:40:40;23.40;49.60
9816;DHT22;4947;44.526;11.360;2022-09-20T15:43:11;23.40;50.30
9816;DHT22;4947;44.526;11.360;2022-09-20T15:45:46;23.40;51.30
9816;DHT22;4947;44.526;11.360;2022-09-20T15:48:15;23.40;52.50
9816;DHT22;4947;44.526;11.360;2022-09-20T15:50:58;23.30;51.70
9816;DHT22;4947;44.526;11.360;2022-09-20T15:53:27;23.30;52.50
9816;DHT22;4947;44.526;11.360;2022-09-20T15:55:57;23.30;52.30
9816;DHT22;4947;44.526;11.360;2022-09-20T15:58:26;23.30;52.20
9816;DHT22;4947;44.526;11.360;2022-09-20T16:01:01;23.30;52.40
9816;DHT22;4947;44.526;11.360;2022-09-20T16:03:30;23.20;53.50
9816;DHT22;4947;44.526;11.360;2022-09-20T16:06:00;23.00;53.00
9816;DHT22;4947;44.526;11.360;2022-09-20T16:08:30;23.00;53.40
9816;DHT22;4947;44.526;11.360;2022-09-20T16:10:59;23.00;53.60
9816;DHT22;4947;44.526;11.360;2022-09-20T16:13:27;23.00;54.30
9816;DHT22;4947;44.526;11.360;2022-09-20T16:15:55;23.00;54.50
9816;DHT22;4947;44.526;11.360;2022-09-20T16:18:24;22.90;54.40
9816;DHT22;4947;44.526;11.360;2022-09-20T16:21:11;23.00;54.90
9816;DHT22;4947;44.526;11.360;2022-09-20T16:23:40;22.80;54.90
9816;DHT22;4947;44.526;11.360;2022-09-20T16:26:09;22.90;54.70
9816;DHT22;4947;44.526;11.360;2022-09-20T16:28:37;22.80;54.70
9816;DHT22;4947;44.526;11.360;2022-09-20T16:31:04;22.80;55.30
9816;DHT22;4947;44.526;11.360;2022-09-20T16:33:32;22.70;56.60
9816;DHT22;4947;44.526;11.360;2022-09-20T16:36:00;22.60;56.50
9816;DHT22;4947;44.526;11.360;2022-09-20T16:38:30;22.60;55.90
9816;DHT22;4947;44.526;11.360;2022-09-20T16:40:57;22.60;57.00
9816;DHT22;4947;44.526;11.360;2022-09-20T16:43:26;22.50;58.10
9816;DHT22;4947;44.526;11.360;2022-09-20T16:45:57;22.50;60.00
9816;DHT22;4947;44.526;11.360;2022-09-20T16:48:25;22.40;61.20
9816;DHT22;4947;44.526;11.360;2022-09-20T16:50:56;22.40;62.40
9816;DHT22;4947;44.526;11.360;2022-09-20T16:53:25;22.20;63.20
9816;DHT22;4947;44.526;11.360;2022-09-20T16:55:54;22.20;63.20
9816;DHT22;4947;44.526;11.360;2022-09-20T16:58:25;22.20;64.10
9816;DHT22;4947;44.526;11.360;2022-09-20T17:00:52;22.10;64.10
9816;DHT22;4947;44.526;11.360;2022-09-20T17:03:20;22.00;65.00
9816;DHT22;4947;44.526;11.360;2022-09-20T17:05:51;21.90;65.40
9816;DHT22;4947;44.526;11.360;2022-09-20T17:08:19;21.80;66.10
9816;DHT22;4947;44.526;11.360;2022-09-20T17:10:47;21.70;67.80
9816;DHT22;4947;44.526;11.360;2022-09-20T17:13:18;21.60;67.60
9816;DHT22;4947;44.526;11.360;2022-09-20T17:15:46;21.50;68.70
9816;DHT22;4947;44.526;11.360;2022-09-20T17:18:14;21.30;69.70